Time;durP1;ratioP1;P1;durP2;ratioP2;P2;SDS_P1;SDS_P2;PMS_P1;PMS_P2;Temp;Humidity;BMP_temperature;BMP_pressure;BME280_temperature;BME280_humidity;BME280_pressure;Samples;Min_cycle;Max_cycle;Signal;HPM_P1;HPM_P2
2022/10/29 00:00:37;;;;;;;7.10;2.80;;;;;;;;;;5021427;28;20205;-79
2022/10/29 00:03:41;;;;;;;13.07;3.70;;;;;;;;;;5021384;28;20186;-78
2022/10/29 00:06:47;;;;;;;4.60;2.90;;;;;;;;;;5021402;28;20197;-78
2022/10/29 00:09:51;;;;;;;5.33;3.03;;;;;;;;;;5008155;28;20198;-78
2022/10/29 00:12:59;;;;;;;9.80;3.17;;;;;;;;;;5021568;28;20241;-78
2022/10/29 00:16:09;;;;;;;8.33;3.20;;;;;;;;;;5020753;28;20197;-78
2022/10/29 00:19:13;;;;;;;9.50;3.10;;;;;;;;;;5009187;28;20205;-78
2022/10/29 00:22:17;;;;;;;8.67;2.83;;;;;;;;;;5021286;28;20224;-78
2022/10/29 00:25:21;;;;;;;7.40;2.60;;;;;;;;;;4997355;28;20177;-78
2022/10/29 00:28:26;;;;;;;6.43;3.13;;;;;;;;;;4996981;28;20205;-79
2022/10/29 00:31:30;;;;;;;7.47;3.33;;;;;;;;;;5007742;28;20209;-78
2022/10/29 00:34:36;;;;;;;11.50;3.07;;;;;;;;;;5020618;28;20177;-78
2022/10/29 00:37:39;;;;;;;9.13;3.90;;;;;;;;;;5020105;28;20522;-78
2022/10/29 00:40:43;;;;;;;13.07;2.77;;;;;;;;;;4997897;28;20209;-78
2022/10/29 00:44:14;;;;;;;5.67;3.10;;;;;;;;;;5002943;28;20182;-77
2022/10/29 00:47:27;;;;;;;5.97;3.03;;;;;;;;;;5002687;28;20185;-77
2022/10/29 00:50:32;;;;;;;8.53;4.23;;;;;;;;;;5014449;28;20182;-77
2022/10/29 00:53:41;;;;;;;5.97;3.10;;;;;;;;;;5002180;28;20196;-77
2022/10/29 00:56:58;;;;;;;8.73;3.30;;;;;;;;;;5014312;28;20186;-77
2022/10/29 01:00:03;;;;;;;9.27;3.47;;;;;;;;;;5002946;28;20201;-78
2022/10/29 01:03:07;;;;;;;7.27;3.53;;;;;;;;;;5014637;28;20209;-77
2022/10/29 01:06:12;;;;;;;6.37;3.17;;;;;;;;;;4991506;28;20189;-77
2022/10/29 01:09:16;;;;;;;5.00;3.03;;;;;;;;;;5003593;28;20186;-78
2022/10/29 01:12:39;;;;;;;17.17;3.30;;;;;;;;;;4991787;28;20702;-78
2022/10/29 01:15:57;;;;;;;7.60;2.70;;;;;;;;;;5006860;28;20201;-77
2022/10/29 01:19:12;;;;;;;6.63;2.90;;;;;;;;;;5002584;28;20201;-78
2022/10/29 01:22:28;;;;;;;7.13;2.97;;;;;;;;;;5002850;28;20217;-78
2022/10/29 01:25:51;;;;;;;6.80;3.17;;;;;;;;;;5004679;28;20189;-78
2022/10/29 01:29:13;;;;;;;9.70;3.00;;;;;;;;;;5013901;28;20201;-77
2022/10/29 01:32:40;;;;;;;8.17;3.10;;;;;;;;;;5002073;28;20648;-77
2022/10/29 01:36:06;;;;;;;4.13;2.90;;;;;;;;;;5013778;28;20186;-78
2022/10/29 01:39:40;;;;;;;12.03;4.17;;;;;;;;;;5013782;28;20209;-77
2022/10/29 01:42:57;;;;;;;7.00;3.50;;;;;;;;;;5003334;28;20190;-78
2022/10/29 01:46:23;;;;;;;7.13;3.23;;;;;;;;;;5003436;28;20181;-78
2022/10/29 01:49:34;;;;;;;9.70;3.07;;;;;;;;;;4992275;28;20177;-78
2022/10/29 01:52:38;;;;;;;11.67;3.10;;;;;;;;;;5004191;28;20221;-78
2022/10/29 01:55:43;;;;;;;7.60;3.10;;;;;;;;;;5003540;28;20185;-77
2022/10/29 01:58:51;;;;;;;4.00;2.97;;;;;;;;;;5014130;28;20181;-77
2022/10/29 02:02:18;;;;;;;7.47;3.23;;;;;;;;;;4990625;28;20217;-77
2022/10/29 02:05:53;;;;;;;5.83;3.47;;;;;;;;;;5013696;28;20534;-77
2022/10/29 02:09:07;;;;;;;7.23;3.20;;;;;;;;;;5013533;28;20178;-77
2022/10/29 02:12:23;;;;;;;5.33;3.27;;;;;;;;;;5001321;28;20695;-77
2022/10/29 02:15:34;;;;;;;6.20;3.10;;;;;;;;;;5001339;28;20193;-77
2022/10/29 02:18:43;;;;;;;12.03;3.80;;;;;;;;;;5013215;28;20173;-77
2022/10/29 02:21:49;;;;;;;11.20;2.70;;;;;;;;;;5013159;28;20699;-77
2022/10/29 02:24:53;;;;;;;7.03;3.03;;;;;;;;;;5013469;28;20624;-78
2022/10/29 02:27:58;;;;;;;10.43;3.53;;;;;;;;;;5013616;28;20509;-77
2022/10/29 02:31:03;;;;;;;4.50;2.83;;;;;;;;;;5014026;28;20217;-78
2022/10/29 02:34:07;;;;;;;12.80;3.00;;;;;;;;;;5005643;28;20190;-78
2022/10/29 02:37:11;;;;;;;8.70;3.13;;;;;;;;;;5006187;28;20177;-77
2022/10/29 02:40:15;;;;;;;7.40;2.93;;;;;;;;;;5005186;28;20213;-77
2022/10/29 02:43:19;;;;;;;7.53;3.63;;;;;;;;;;5005819;28;20185;-77
2022/10/29 02:46:24;;;;;;;10.50;3.33;;;;;;;;;;5005562;28;20178;-77
2022/10/29 02:49:28;;;;;;;7.57;4.07;;;;;;;;;;5016868;28;20178;-77
2022/10/29 02:52:32;;;;;;;8.80;3.70;;;;;;;;;;5004933;28;20217;-77
2022/10/29 02:55:37;;;;;;;11.10;3.77;;;;;;;;;;5005119;28;20189;-78
2022/10/29 02:58:41;;;;;;;9.07;2.87;;;;;;;;;;4983385;28;20173;-78
2022/10/29 03:01:45;;;;;;;6.90;3.23;;;;;;;;;;5005109;28;20206;-78
2022/10/29 03:04:49;;;;;;;10.47;3.40;;;;;;;;;;5018332;28;20181;-78
2022/10/29 03:07:53;;;;;;;6.90;2.90;;;;;;;;;;4996703;28;20173;-78
2022/10/29 03:10:57;;;;;;;6.87;3.50;;;;;;;;;;5019357;28;20217;-78
2022/10/29 03:14:02;;;;;;;8.67;3.30;;;;;;;;;;5020775;28;20177;-78
2022/10/29 03:17:06;;;;;;;8.17;3.90;;;;;;;;;;4995273;28;20552;-78
2022/10/29 03:20:10;;;;;;;8.23;3.40;;;;;;;;;;5008148;28;20675;-78
2022/10/29 03:23:14;;;;;;;7.53;3.50;;;;;;;;;;5021195;28;20198;-78
2022/10/29 03:26:18;;;;;;;8.07;3.00;;;;;;;;;;5023653;28;20182;-78
2022/10/29 03:29:23;;;;;;;4.73;2.83;;;;;;;;;;5010292;28;20209;-77
2022/10/29 03:32:27;;;;;;;7.83;2.87;;;;;;;;;;5008839;28;20217;-77
2022/10/29 03:35:31;;;;;;;5.37;2.90;;;;;;;;;;5021257;28;20185;-77
2022/10/29 03:38:35;;;;;;;6.67;3.00;;;;;;;;;;5020637;28;20181;-77
2022/10/29 03:44:42;;;;;;;9.77;3.00;;;;;;;;;;5013590;28;20319;-77
2022/10/29 03:47:46;;;;;;;6.07;3.13;;;;;;;;;;5003727;28;20201;-77
2022/10/29 03:50:58;;;;;;;7.23;2.80;;;;;;;;;;5003841;28;20213;-76
2022/10/29 03:54:03;;;;;;;9.63;3.27;;;;;;;;;;4998056;28;20206;-77
2022/10/29 03:57:07;;;;;;;7.47;3.27;;;;;;;;;;4984056;28;20178;-77
2022/10/29 04:00:11;;;;;;;6.57;3.13;;;;;;;;;;4983929;28;20202;-77
2022/10/29 04:03:18;;;;;;;5.93;2.93;;;;;;;;;;4984188;28;20178;-77
2022/10/29 04:06:22;;;;;;;9.63;3.10;;;;;;;;;;4985315;28;20522;-81
2022/10/29 04:09:27;;;;;;;4.23;3.10;;;;;;;;;;4978817;28;20186;-80
2022/10/29 04:12:31;;;;;;;5.57;3.03;;;;;;;;;;4988742;28;20692;-78
2022/10/29 04:15:34;;;;;;;9.30;3.63;;;;;;;;;;4976935;28;20194;-78
2022/10/29 04:18:38;;;;;;;6.80;3.20;;;;;;;;;;4963278;28;20202;-77
2022/10/29 04:21:42;;;;;;;7.00;3.27;;;;;;;;;;4973243;28;20222;-77
2022/10/29 04:24:47;;;;;;;6.23;3.17;;;;;;;;;;4983887;28;20206;-77
2022/10/29 04:27:54;;;;;;;7.20;2.90;;;;;;;;;;4972308;28;20193;-77
2022/10/29 04:31:03;;;;;;;7.13;3.30;;;;;;;;;;4972181;28;20214;-77
2022/10/29 04:34:07;;;;;;;7.03;3.07;;;;;;;;;;4995504;28;20210;-76
2022/10/29 04:37:11;;;;;;;4.47;2.90;;;;;;;;;;4995813;28;20218;-77
2022/10/29 04:40:15;;;;;;;9.07;3.67;;;;;;;;;;4982940;28;20570;-76
2022/10/29 04:43:20;;;;;;;7.13;3.37;;;;;;;;;;4995206;28;20210;-77
2022/10/29 04:46:24;;;;;;;9.07;3.40;;;;;;;;;;4972107;28;20178;-77
2022/10/29 04:49:28;;;;;;;7.60;3.20;;;;;;;;;;4961080;28;20186;-76
2022/10/29 04:52:32;;;;;;;6.70;3.23;;;;;;;;;;4994897;28;20673;-76
2022/10/29 04:55:38;;;;;;;9.60;3.43;;;;;;;;;;4971922;28;20182;-76
2022/10/29 04:58:42;;;;;;;12.07;3.23;;;;;;;;;;4972444;28;20182;-77
2022/10/29 05:01:46;;;;;;;6.17;3.10;;;;;;;;;;4972252;28;20226;-77
2022/10/29 05:04:50;;;;;;;8.17;3.00;;;;;;;;;;4982872;28;20201;-77
2022/10/29 05:08:02;;;;;;;11.93;3.20;;;;;;;;;;4972259;28;20202;-77
2022/10/29 05:11:06;;;;;;;10.63;2.97;;;;;;;;;;4982752;28;20214;-77
2022/10/29 05:14:10;;;;;;;9.73;2.83;;;;;;;;;;4982772;28;20186;-77
2022/10/29 05:17:14;;;;;;;8.57;3.10;;;;;;;;;;4994571;28;20194;-77
2022/10/29 05:20:18;;;;;;;7.73;2.43;;;;;;;;;;4985261;28;20218;-77
2022/10/29 05:23:23;;;;;;;8.17;2.70;;;;;;;;;;4993898;28;20210;-77
2022/10/29 05:26:31;;;;;;;7.00;3.00;;;;;;;;;;4982522;28;20187;-77
2022/10/29 05:29:35;;;;;;;7.37;2.87;;;;;;;;;;4982652;28;20202;-77
2022/10/29 05:32:39;;;;;;;8.13;3.40;;;;;;;;;;4971147;28;20218;-77
2022/10/29 05:35:43;;;;;;;5.53;2.43;;;;;;;;;;4982603;28;20190;-77
2022/10/29 05:38:47;;;;;;;5.90;3.00;;;;;;;;;;4982378;28;20648;-77
2022/10/29 05:41:51;;;;;;;12.20;3.13;;;;;;;;;;4981976;28;20225;-78
2022/10/29 05:44:56;;;;;;;6.43;3.07;;;;;;;;;;4982481;28;20202;-76
2022/10/29 05:48:02;;;;;;;9.27;3.10;;;;;;;;;;4970851;28;20202;-77
2022/10/29 05:51:06;;;;;;;8.63;3.20;;;;;;;;;;4982424;28;20213;-76
2022/10/29 05:54:10;;;;;;;7.33;3.23;;;;;;;;;;4994108;28;20197;-76
2022/10/29 05:57:14;;;;;;;5.93;3.27;;;;;;;;;;4993373;28;20633;-77
2022/10/29 06:00:18;;;;;;;5.23;3.47;;;;;;;;;;4994072;28;20209;-77
2022/10/29 06:03:22;;;;;;;12.53;4.13;;;;;;;;;;4960243;28;20182;-77
2022/10/29 06:06:27;;;;;;;9.33;4.33;;;;;;;;;;4970628;28;20182;-76
2022/10/29 06:09:32;;;;;;;12.20;4.77;;;;;;;;;;4994213;28;20617;-76
2022/10/29 06:12:36;;;;;;;7.37;4.30;;;;;;;;;;4970663;28;20214;-77
2022/10/29 06:15:40;;;;;;;9.40;3.83;;;;;;;;;;4981636;28;20186;-77
2022/10/29 06:18:44;;;;;;;8.23;3.83;;;;;;;;;;4970784;28;20186;-77
2022/10/29 06:21:49;;;;;;;7.60;3.83;;;;;;;;;;4959394;28;20565;-77
2022/10/29 06:24:53;;;;;;;9.77;3.73;;;;;;;;;;4981821;28;20641;-77
2022/10/29 06:28:02;;;;;;;10.07;3.50;;;;;;;;;;4970738;28;20182;-77
2022/10/29 06:31:07;;;;;;;8.33;4.20;;;;;;;;;;4981288;28;20209;-76
2022/10/29 06:34:12;;;;;;;10.90;3.90;;;;;;;;;;4993446;28;20637;-77
2022/10/29 06:37:16;;;;;;;6.60;2.87;;;;;;;;;;4971163;28;20182;-77
2022/10/29 06:40:20;;;;;;;8.43;4.00;;;;;;;;;;4970473;28;20206;-77
2022/10/29 06:43:24;;;;;;;7.87;3.60;;;;;;;;;;4959744;28;20213;-77
2022/10/29 06:46:29;;;;;;;11.63;4.27;;;;;;;;;;4981592;28;20206;-77
2022/10/29 06:49:33;;;;;;;7.57;3.90;;;;;;;;;;4993334;28;20179;-77
2022/10/29 06:52:38;;;;;;;10.97;3.93;;;;;;;;;;4971580;28;20213;-79
2022/10/29 06:55:42;;;;;;;9.03;3.43;;;;;;;;;;4981906;28;20213;-77
2022/10/29 06:58:46;;;;;;;9.23;3.50;;;;;;;;;;4970167;28;20206;-77
2022/10/29 07:01:50;;;;;;;7.90;3.33;;;;;;;;;;4970290;28;20712;-77
2022/10/29 07:04:54;;;;;;;7.20;3.07;;;;;;;;;;4970445;28;20182;-77
2022/10/29 07:07:59;;;;;;;4.77;2.93;;;;;;;;;;4992735;28;20183;-77
2022/10/29 07:11:04;;;;;;;9.00;3.33;;;;;;;;;;4981208;28;20214;-77
2022/10/29 07:14:08;;;;;;;9.00;3.40;;;;;;;;;;4970571;28;20527;-76
2022/10/29 07:17:12;;;;;;;12.87;4.33;;;;;;;;;;4970402;28;20182;-77
2022/10/29 07:20:16;;;;;;;9.27;4.60;;;;;;;;;;4984063;28;20633;-77
2022/10/29 07:23:21;;;;;;;11.83;4.33;;;;;;;;;;4984447;28;20178;-76
2022/10/29 07:26:25;;;;;;;10.10;4.00;;;;;;;;;;4984604;28;20183;-77
2022/10/29 07:29:29;;;;;;;9.50;4.07;;;;;;;;;;4985060;28;20522;-77
2022/10/29 07:32:33;;;;;;;9.63;3.20;;;;;;;;;;4996516;28;20214;-77
2022/10/29 07:35:37;;;;;;;9.27;3.27;;;;;;;;;;4973453;28;20641;-77
2022/10/29 07:38:42;;;;;;;8.73;4.37;;;;;;;;;;4984991;28;20178;-77
2022/10/29 07:41:46;;;;;;;9.43;4.77;;;;;;;;;;4972939;28;20226;-77
2022/10/29 07:44:50;;;;;;;9.70;5.50;;;;;;;;;;4984420;28;20630;-76
2022/10/29 07:47:59;;;;;;;9.60;5.30;;;;;;;;;;4984477;28;20182;-77
2022/10/29 07:51:03;;;;;;;13.40;10.30;;;;;;;;;;4972752;28;20210;-77
2022/10/29 07:54:07;;;;;;;9.47;6.80;;;;;;;;;;4973105;28;20185;-77
2022/10/29 07:57:11;;;;;;;10.47;6.77;;;;;;;;;;4996041;28;20178;-77
2022/10/29 08:00:15;;;;;;;11.93;5.77;;;;;;;;;;4996386;28;20626;-77
2022/10/29 08:03:20;;;;;;;5.70;4.60;;;;;;;;;;4984319;28;20178;-76
2022/10/29 08:06:24;;;;;;;12.13;5.00;;;;;;;;;;4983879;28;20677;-76
2022/10/29 08:09:28;;;;;;;7.47;4.90;;;;;;;;;;4972688;28;20205;-76
2022/10/29 08:12:32;;;;;;;11.00;5.60;;;;;;;;;;4995615;28;20226;-77
2022/10/29 08:15:36;;;;;;;6.63;4.03;;;;;;;;;;4995572;28;20182;-77
2022/10/29 08:18:41;;;;;;;9.83;4.27;;;;;;;;;;4995192;28;20178;-77
2022/10/29 08:21:45;;;;;;;10.03;4.23;;;;;;;;;;4983837;28;20218;-76
2022/10/29 08:24:50;;;;;;;11.07;5.77;;;;;;;;;;4984104;28;20519;-77
2022/10/29 08:28:01;;;;;;;6.53;3.50;;;;;;;;;;4996464;28;20186;-76
2022/10/29 08:31:05;;;;;;;5.63;3.00;;;;;;;;;;4983956;28;20210;-77
2022/10/29 08:34:09;;;;;;;8.97;3.30;;;;;;;;;;4996357;28;20637;-76
2022/10/29 08:37:13;;;;;;;11.07;4.37;;;;;;;;;;4973157;28;20186;-77
2022/10/29 08:40:20;;;;;;;6.90;3.70;;;;;;;;;;4984218;28;20198;-77
2022/10/29 08:43:37;;;;;;;5.97;3.60;;;;;;;;;;4972790;28;20558;-77
2022/10/29 08:47:12;;;;;;;7.27;3.53;;;;;;;;;;4987309;28;20203;-77
2022/10/29 08:50:26;;;;;;;9.97;3.20;;;;;;;;;;5000271;28;20182;-76
2022/10/29 08:53:44;;;;;;;8.77;3.60;;;;;;;;;;4989021;28;20179;-77
2022/10/29 08:56:56;;;;;;;9.13;3.47;;;;;;;;;;5000700;28;20179;-77
2022/10/29 09:00:06;;;;;;;7.03;3.27;;;;;;;;;;4999710;28;20202;-77
2022/10/29 09:03:11;;;;;;;14.07;3.67;;;;;;;;;;4976877;28;20190;-77
2022/10/29 09:07:00;;;;;;;5.93;3.50;;;;;;;;;;4988025;28;20190;-76
2022/10/29 09:10:25;;;;;;;7.50;3.73;;;;;;;;;;4999948;28;20179;-77
2022/10/29 09:13:48;;;;;;;8.57;3.53;;;;;;;;;;4999517;28;20178;-77
2022/10/29 09:17:18;;;;;;;8.60;3.67;;;;;;;;;;4986977;28;20183;-77
2022/10/29 09:20:50;;;;;;;6.37;3.07;;;;;;;;;;4975885;28;20182;-76
2022/10/29 09:24:04;;;;;;;5.83;3.27;;;;;;;;;;4998177;28;20629;-77
2022/10/29 09:27:36;;;;;;;7.87;3.30;;;;;;;;;;4998077;28;20191;-77
2022/10/29 09:31:16;;;;;;;7.30;4.17;;;;;;;;;;4997609;28;20218;-77
2022/10/29 09:34:29;;;;;;;11.60;3.70;;;;;;;;;;4985404;28;20186;-77
2022/10/29 09:37:43;;;;;;;11.57;3.43;;;;;;;;;;4973477;28;20201;-76
2022/10/29 09:40:47;;;;;;;8.90;3.47;;;;;;;;;;4996789;28;20218;-76
2022/10/29 09:44:01;;;;;;;7.40;4.10;;;;;;;;;;5034164;23;20228;-80
2022/10/29 09:47:31;;;;;;;8.27;3.90;;;;;;;;;;5025405;28;20189;-80
2022/10/29 09:50:50;;;;;;;12.73;4.50;;;;;;;;;;5025112;28;21897;-80
2022/10/29 09:53:54;;;;;;;12.43;6.07;;;;;;;;;;5049091;28;20188;-80
2022/10/29 09:57:01;;;;;;;12.13;5.93;;;;;;;;;;5036777;28;20519;-80
2022/10/29 10:00:14;;;;;;;9.90;4.20;;;;;;;;;;5025004;28;20184;-80
2022/10/29 10:03:31;;;;;;;7.43;3.00;;;;;;;;;;5033862;28;20211;-80
2022/10/29 10:07:00;;;;;;;11.63;3.43;;;;;;;;;;5019429;28;20185;-80
2022/10/29 10:10:31;;;;;;;11.60;3.17;;;;;;;;;;5021252;28;20180;-80
2022/10/29 10:13:50;;;;;;;7.23;2.80;;;;;;;;;;5024556;28;20168;-80
2022/10/29 10:16:59;;;;;;;9.33;3.50;;;;;;;;;;5028043;28;20185;-80
2022/10/29 10:20:32;;;;;;;9.10;2.90;;;;;;;;;;5026695;28;20185;-80
2022/10/29 10:23:46;;;;;;;15.07;3.40;;;;;;;;;;5042599;28;20216;-81
2022/10/29 10:26:50;;;;;;;9.37;3.27;;;;;;;;;;5026847;28;20181;-81
2022/10/29 10:30:03;;;;;;;11.00;3.23;;;;;;;;;;5038746;28;20178;-81
2022/10/29 10:33:28;;;;;;;10.00;3.40;;;;;;;;;;5025991;28;20195;-81
2022/10/29 10:36:38;;;;;;;13.17;2.93;;;;;;;;;;5017935;28;20191;-81
2022/10/29 10:39:49;;;;;;;9.13;2.90;;;;;;;;;;5016686;28;20207;-81
2022/10/29 10:42:54;;;;;;;7.07;3.10;;;;;;;;;;5037684;28;20220;-81
2022/10/29 10:46:04;;;;;;;9.33;3.03;;;;;;;;;;5024554;28;20180;-81
2022/10/29 10:49:27;;;;;;;8.83;2.80;;;;;;;;;;5023532;28;20185;-81
2022/10/29 10:52:31;;;;;;;13.20;3.57;;;;;;;;;;5015789;28;20223;-81
2022/10/29 10:55:37;;;;;;;11.37;2.93;;;;;;;;;;5018429;28;20632;-81
2022/10/29 10:58:51;;;;;;;15.37;3.27;;;;;;;;;;5018668;28;20640;-81
2022/10/29 11:01:59;;;;;;;11.23;3.03;;;;;;;;;;5008807;28;20227;-81
2022/10/29 11:05:19;;;;;;;9.57;2.77;;;;;;;;;;5029366;28;20199;-81
2022/10/29 11:08:31;;;;;;;11.80;3.23;;;;;;;;;;5018001;28;20183;-80
2022/10/29 11:11:48;;;;;;;8.60;2.37;;;;;;;;;;5018278;28;20216;-80
2022/10/29 11:14:57;;;;;;;13.07;3.30;;;;;;;;;;5006342;28;20178;-81
2022/10/29 11:18:12;;;;;;;13.13;3.33;;;;;;;;;;5017352;28;20179;-81
2022/10/29 11:21:40;;;;;;;8.77;2.70;;;;;;;;;;5032202;28;20697;-80
2022/10/29 11:25:16;;;;;;;9.70;2.83;;;;;;;;;;5011098;28;20205;-80
2022/10/29 11:28:30;;;;;;;7.90;2.63;;;;;;;;;;5048551;28;20174;-80
2022/10/29 11:31:43;;;;;;;9.33;2.77;;;;;;;;;;5035895;28;20213;-80
2022/10/29 11:34:50;;;;;;;9.40;3.10;;;;;;;;;;5037080;28;20177;-80
2022/10/29 11:38:02;;;;;;;11.37;3.00;;;;;;;;;;5025576;28;20181;-80
2022/10/29 11:41:22;;;;;;;10.90;2.67;;;;;;;;;;5036731;28;20567;-80
2022/10/29 11:44:31;;;;;;;10.47;2.70;;;;;;;;;;5036767;28;20677;-80
2022/10/29 11:48:08;;;;;;;17.33;3.20;;;;;;;;;;5048539;28;20190;-80
2022/10/29 11:51:22;;;;;;;5.80;2.77;;;;;;;;;;5024999;28;20224;-80
2022/10/29 11:55:03;;;;;;;7.97;2.60;;;;;;;;;;5025261;28;20540;-80
2022/10/29 11:58:27;;;;;;;7.87;2.40;;;;;;;;;;5024828;28;20660;-80
2022/10/29 12:02:18;;;;;;;14.67;2.80;;;;;;;;;;5025378;28;20218;-80
2022/10/29 12:05:44;;;;;;;10.87;2.47;;;;;;;;;;4996543;28;20207;-80
2022/10/29 12:09:20;;;;;;;9.07;2.50;;;;;;;;;;5025872;28;20626;-80
2022/10/29 12:12:35;;;;;;;10.63;2.20;;;;;;;;;;5025154;28;20214;-80
2022/10/29 12:15:40;;;;;;;10.97;2.40;;;;;;;;;;5036294;28;20190;-80
2022/10/29 12:18:55;;;;;;;8.40;2.20;;;;;;;;;;5024959;28;20198;-80
2022/10/29 12:22:17;;;;;;;6.53;2.67;;;;;;;;;;5023943;28;20217;-81
2022/10/29 12:25:39;;;;;;;8.43;2.20;;;;;;;;;;5035805;28;20191;-80
2022/10/29 12:28:59;;;;;;;10.90;2.33;;;;;;;;;;5035622;28;20185;-81
2022/10/29 12:32:45;;;;;;;7.87;2.57;;;;;;;;;;5036241;28;20218;-80
2022/10/29 12:35:58;;;;;;;9.43;2.67;;;;;;;;;;4957055;28;20181;-81
2022/10/29 12:39:08;;;;;;;12.63;2.90;;;;;;;;;;5027161;28;20187;-81
2022/10/29 12:42:21;;;;;;;10.23;2.60;;;;;;;;;;5037230;28;20226;-81
2022/10/29 12:45:49;;;;;;;10.23;2.70;;;;;;;;;;5037420;28;20187;-81
2022/10/29 12:48:56;;;;;;;10.30;2.40;;;;;;;;;;5026481;28;20189;-80
2022/10/29 12:52:06;;;;;;;13.35;2.88;;;;;;;;;;5037360;28;20569;-81
2022/10/29 12:55:14;;;;;;;9.70;2.85;;;;;;;;;;5036996;28;20180;-81
2022/10/29 12:58:48;;;;;;;10.52;2.80;;;;;;;;;;5050347;28;20219;-81
2022/10/29 13:01:54;;;;;;;10.27;2.40;;;;;;;;;;5026884;28;20217;-81
2022/10/29 13:05:10;;;;;;;15.65;2.85;;;;;;;;;;5040537;28;20181;-81
2022/10/29 13:08:25;;;;;;;8.63;2.42;;;;;;;;;;5037940;28;20181;-81
2022/10/29 13:11:45;;;;;;;15.52;2.85;;;;;;;;;;5038648;28;20649;-81
2022/10/29 13:14:54;;;;;;;11.65;2.47;;;;;;;;;;5028296;28;20254;-81
2022/10/29 13:18:12;;;;;;;10.45;2.38;;;;;;;;;;5027549;28;20177;-81
2022/10/29 13:21:54;;;;;;;17.05;2.88;;;;;;;;;;5039304;28;20217;-81
2022/10/29 13:25:31;;;;;;;12.63;3.67;;;;;;;;;;5037615;28;20175;-81
2022/10/29 13:28:36;;;;;;;15.02;3.65;;;;;;;;;;5011043;28;20211;-81
2022/10/29 13:31:44;;;;;;;17.17;4.05;;;;;;;;;;5038502;28;20217;-81
2022/10/29 13:34:54;;;;;;;13.65;4.13;;;;;;;;;;5025379;28;20197;-81
2022/10/29 13:38:11;;;;;;;11.82;4.93;;;;;;;;;;5037204;28;20191;-81
2022/10/29 13:41:17;;;;;;;8.90;2.80;;;;;;;;;;5024665;28;20218;-81
2022/10/29 13:44:23;;;;;;;8.93;2.65;;;;;;;;;;5006364;28;20220;-81
2022/10/29 13:47:28;;;;;;;14.93;2.60;;;;;;;;;;5018653;28;20203;-81
2022/10/29 13:50:34;;;;;;;10.85;2.97;;;;;;;;;;5008538;28;20179;-81
2022/10/29 13:53:45;;;;;;;6.60;2.72;;;;;;;;;;5019362;28;20170;-81
2022/10/29 13:56:58;;;;;;;8.07;2.47;;;;;;;;;;5007125;28;20193;-81
2022/10/29 14:00:11;;;;;;;11.82;2.80;;;;;;;;;;5029946;28;20177;-81
2022/10/29 14:03:45;;;;;;;8.38;3.28;;;;;;;;;;5029620;28;20208;-81
2022/10/29 14:06:53;;;;;;;9.63;3.27;;;;;;;;;;5007011;28;20192;-81
2022/10/29 14:10:06;;;;;;;13.30;3.73;;;;;;;;;;5006204;28;20179;-80
2022/10/29 14:13:16;;;;;;;9.97;2.97;;;;;;;;;;5017512;28;20180;-80
2022/10/29 14:16:28;;;;;;;11.93;3.40;;;;;;;;;;5029369;28;20520;-81
2022/10/29 14:19:32;;;;;;;15.50;3.23;;;;;;;;;;5006602;28;20179;-81
2022/10/29 14:22:37;;;;;;;12.13;2.73;;;;;;;;;;5008188;28;20336;-80
2022/10/29 14:25:42;;;;;;;8.37;2.80;;;;;;;;;;5016282;28;20185;-80
2022/10/29 14:28:46;;;;;;;11.57;3.27;;;;;;;;;;5005885;28;20183;-81
2022/10/29 14:32:02;;;;;;;10.43;2.63;;;;;;;;;;5030829;28;20223;-80
2022/10/29 14:35:13;;;;;;;12.57;2.47;;;;;;;;;;5008406;28;20623;-81
2022/10/29 14:38:20;;;;;;;9.10;2.70;;;;;;;;;;5029819;28;20196;-81
2022/10/29 14:41:27;;;;;;;11.73;2.80;;;;;;;;;;5007580;28;20221;-80
2022/10/29 14:44:32;;;;;;;16.03;3.10;;;;;;;;;;5008451;28;20217;-81
2022/10/29 14:47:37;;;;;;;11.07;2.90;;;;;;;;;;5019528;28;20208;-81
2022/10/29 14:51:00;;;;;;;7.73;2.30;;;;;;;;;;5031863;28;20217;-81
2022/10/29 14:54:06;;;;;;;7.70;2.40;;;;;;;;;;5030920;28;20184;-81
2022/10/29 14:57:17;;;;;;;19.27;3.13;;;;;;;;;;5020834;28;20184;-80
2022/10/29 15:00:27;;;;;;;15.20;3.13;;;;;;;;;;5030950;28;20182;-81
2022/10/29 15:03:33;;;;;;;9.87;3.20;;;;;;;;;;5008977;28;20202;-80
2022/10/29 15:06:37;;;;;;;8.17;2.23;;;;;;;;;;5020115;28;20178;-80
2022/10/29 15:09:44;;;;;;;9.97;2.93;;;;;;;;;;5031230;28;20186;-81
2022/10/29 15:12:50;;;;;;;9.07;2.67;;;;;;;;;;5007619;28;20177;-81
2022/10/29 15:16:04;;;;;;;12.77;2.70;;;;;;;;;;5008971;28;20643;-80
2022/10/29 15:19:13;;;;;;;8.03;2.67;;;;;;;;;;5009004;28;20185;-81
2022/10/29 15:22:24;;;;;;;10.10;2.77;;;;;;;;;;5009991;28;20212;-80
2022/10/29 15:25:34;;;;;;;9.13;2.73;;;;;;;;;;5029907;28;20534;-80
2022/10/29 15:28:41;;;;;;;9.43;2.60;;;;;;;;;;5018854;28;20181;-80
2022/10/29 15:31:52;;;;;;;14.87;3.10;;;;;;;;;;5007264;28;20212;-79
2022/10/29 15:34:58;;;;;;;12.43;2.90;;;;;;;;;;5007477;28;20185;-80
2022/10/29 15:38:02;;;;;;;12.30;3.53;;;;;;;;;;5008356;28;20173;-80
2022/10/29 15:41:07;;;;;;;11.20;3.47;;;;;;;;;;5007941;28;20216;-80
2022/10/29 15:44:35;;;;;;;12.17;3.20;;;;;;;;;;5032217;23;20667;-87
2022/10/29 15:48:04;;;;;;;12.20;3.40;;;;;;;;;;4992751;28;20204;-87
2022/10/29 15:51:08;;;;;;;11.07;3.07;;;;;;;;;;4980030;28;20205;-87
2022/10/29 15:54:12;;;;;;;7.93;2.70;;;;;;;;;;5007400;28;20209;-88
2022/10/29 15:57:17;;;;;;;11.73;3.00;;;;;;;;;;5001960;28;20185;-87
2022/10/29 16:00:22;;;;;;;17.50;3.20;;;;;;;;;;5013786;28;20177;-87
2022/10/29 16:03:27;;;;;;;5.77;2.70;;;;;;;;;;5002801;28;20216;-87
2022/10/29 16:06:31;;;;;;;11.30;3.30;;;;;;;;;;5003467;28;20177;-87
2022/10/29 16:09:35;;;;;;;12.40;3.40;;;;;;;;;;5025140;28;20177;-87
2022/10/29 16:12:40;;;;;;;12.03;2.90;;;;;;;;;;5002069;28;20185;-87
2022/10/29 16:15:45;;;;;;;10.40;3.00;;;;;;;;;;5013023;28;20169;-88
2022/10/29 16:18:50;;;;;;;16.50;3.07;;;;;;;;;;5001233;28;20173;-87
2022/10/29 16:21:54;;;;;;;12.00;3.40;;;;;;;;;;5001578;28;20477;-87
2022/10/29 16:24:58;;;;;;;12.03;3.63;;;;;;;;;;5001463;28;20556;-87
2022/10/29 16:28:03;;;;;;;9.27;3.10;;;;;;;;;;5001174;28;20513;-87
2022/10/29 16:31:18;;;;;;;11.63;3.10;;;;;;;;;;5000693;28;20180;-87
2022/10/29 16:34:22;;;;;;;12.53;3.17;;;;;;;;;;5000482;28;20561;-87
2022/10/29 16:37:26;;;;;;;9.23;2.97;;;;;;;;;;5000939;28;20184;-88
2022/10/29 16:40:31;;;;;;;12.50;3.27;;;;;;;;;;5000662;28;20181;-88
2022/10/29 16:43:35;;;;;;;12.70;2.80;;;;;;;;;;5000158;28;20216;-87
2022/10/29 16:46:39;;;;;;;7.97;3.43;;;;;;;;;;5023065;28;20188;-87
2022/10/29 16:49:43;;;;;;;12.83;3.90;;;;;;;;;;5000781;28;20635;-87
2022/10/29 16:52:54;;;;;;;10.43;3.90;;;;;;;;;;5000849;28;20177;-87
2022/10/29 16:55:58;;;;;;;16.03;4.20;;;;;;;;;;5000023;28;20181;-87
2022/10/29 16:59:04;;;;;;;13.20;4.20;;;;;;;;;;5000673;28;20235;-87
2022/10/29 17:02:11;;;;;;;14.97;5.87;;;;;;;;;;5012888;28;20181;-87
2022/10/29 17:05:16;;;;;;;10.00;4.93;;;;;;;;;;5001969;28;20220;-87
2022/10/29 17:08:20;;;;;;;9.87;4.30;;;;;;;;;;5012879;28;20177;-87
2022/10/29 17:11:24;;;;;;;22.43;4.47;;;;;;;;;;5010994;28;20181;-87
2022/10/29 17:14:28;;;;;;;13.90;4.40;;;;;;;;;;4999975;28;20687;-87
2022/10/29 17:17:33;;;;;;;16.40;4.47;;;;;;;;;;5011107;28;20180;-87
2022/10/29 17:20:37;;;;;;;9.80;3.60;;;;;;;;;;5011659;28;20177;-87
2022/10/29 17:23:41;;;;;;;12.57;4.33;;;;;;;;;;5023134;28;20228;-87
2022/10/29 17:26:45;;;;;;;10.23;3.67;;;;;;;;;;5011745;28;20197;-88
2022/10/29 17:29:50;;;;;;;12.47;3.70;;;;;;;;;;5011323;28;20193;-87
2022/10/29 17:32:54;;;;;;;12.00;4.90;;;;;;;;;;5010572;28;20185;-87
2022/10/29 17:36:03;;;;;;;11.53;4.13;;;;;;;;;;4999349;28;20184;-87
2022/10/29 17:39:07;;;;;;;15.57;4.50;;;;;;;;;;4999431;28;20276;-87
2022/10/29 17:42:11;;;;;;;11.67;3.80;;;;;;;;;;4999972;28;20180;-87
2022/10/29 17:45:19;;;;;;;13.80;4.00;;;;;;;;;;4999848;28;20208;-87
2022/10/29 17:48:23;;;;;;;10.10;4.00;;;;;;;;;;5011329;28;20177;-87
2022/10/29 17:51:27;;;;;;;13.77;4.13;;;;;;;;;;4999820;28;20200;-87
2022/10/29 17:54:31;;;;;;;15.60;5.03;;;;;;;;;;5010226;28;20212;-88
2022/10/29 17:57:35;;;;;;;16.17;5.43;;;;;;;;;;4999662;28;20180;-87
2022/10/29 18:00:39;;;;;;;10.23;4.83;;;;;;;;;;5011087;28;20189;-87
2022/10/29 18:03:44;;;;;;;14.20;4.80;;;;;;;;;;5010798;28;20220;-86
2022/10/29 18:06:48;;;;;;;17.43;4.50;;;;;;;;;;5010844;28;20173;-87
2022/10/29 18:09:52;;;;;;;11.73;4.57;;;;;;;;;;4999173;28;20173;-87
2022/10/29 18:12:56;;;;;;;10.87;4.37;;;;;;;;;;4998551;28;20193;-87
2022/10/29 18:16:01;;;;;;;14.93;4.67;;;;;;;;;;4999989;28;20201;-87
2022/10/29 18:19:05;;;;;;;13.40;5.00;;;;;;;;;;5022097;28;20177;-87
2022/10/29 18:22:09;;;;;;;11.77;6.40;;;;;;;;;;5023261;28;20177;-87
2022/10/29 18:25:13;;;;;;;13.07;5.93;;;;;;;;;;5021061;28;20226;-87
2022/10/29 18:28:18;;;;;;;16.87;7.17;;;;;;;;;;5009861;28;20176;-87
2022/10/29 18:31:24;;;;;;;18.93;7.30;;;;;;;;;;5010119;28;20176;-87
2022/10/29 18:34:30;;;;;;;26.83;8.43;;;;;;;;;;4998961;28;20552;-87
2022/10/29 18:37:34;;;;;;;19.97;9.07;;;;;;;;;;4998986;28;20180;-87
2022/10/29 18:40:38;;;;;;;15.40;7.23;;;;;;;;;;5009757;28;20521;-87
2022/10/29 18:43:42;;;;;;;14.03;6.07;;;;;;;;;;4998705;28;20575;-87
2022/10/29 18:46:47;;;;;;;13.27;5.83;;;;;;;;;;5009798;28;20205;-87
2022/10/29 18:49:51;;;;;;;12.37;5.47;;;;;;;;;;5010021;28;20632;-87
2022/10/29 18:52:55;;;;;;;13.37;5.83;;;;;;;;;;4999570;28;20181;-87